FW8148 Weather Reports


Display with metric or nautical units.
time (UTC)temp
F
wind
direction
speed
MPH
gust
MPH
rain 1hr
in
rain 24hr
in
rain mn
in
humidity
%
barometer
mb
20220524093256 67 281 2.0 9.0 0.00 0.21 0.00 58 1006.6
20220524092359 66 263 4.0 7.0 0.00 0.21 0.00 59 1006.6
20220524091455 67 236 4.0 7.0 0.00 0.21 0.00 60 1006.6
20220524090554 67 290 3.0 6.0 0.00 0.21 0.00 61 1006.6
20220524085654 67 250 3.0 6.0 0.00 0.21 0.00 62 1007.6
20220524084800 66 218 3.0 6.0 0.00 0.21 0.00 63 1006.6
20220524083854 65 233 1.0 7.0 0.00 0.21 0.00 67 1006.6
20220524082955 64 288 2.0 7.0 0.00 0.21 0.00 68 1006.6
20220524082055 64 237 4.0 8.0 0.00 0.21 0.00 69 1006.6
20220524081154 62 258 4.0 6.0 0.00 0.21 0.00 71 1006.6
20220524080002 62 247 3.0 4.0 0.00 0.21 0.00 72 1006.6
20220524075105 61 280 3.0 5.0 0.00 0.21 0.00 73 1006.6
20220524074200 61 272 2.0 6.0 0.00 0.21 0.00 74 1006.6
20220524073305 61 243 3.0 6.0 0.00 0.21 0.00 77 1006.6
20220524072404 61 254 3.0 6.0 0.00 0.21 0.00 79 1006.6
20220524071505 60 272 2.0 4.0 0.00 0.21 0.00 80 1005.6
20220524070601 60 286 2.0 4.0 0.00 0.21 0.00 81 1005.6
20220524065705 59 298 2.0 4.0 0.00 0.21 0.00 82 1006.6
20220524064805 58 292 3.0 5.0 0.00 0.21 0.00 82 1006.6
20220524063901 58 253 3.0 5.0 0.00 0.21 0.00 83 1006.6
20220524063002 58 272 4.0 6.0 0.00 0.21 0.00 83 1006.6
20220524062103 58 250 1.0 4.0 0.00 0.21 0.00 84 1006.6
20220524061205 58 273 2.0 4.0 0.00 0.21 0.00 85 1006.6
20220524055104 57 268 2.0 4.0 0.00 0.21 0.00 88 1005.6
20220524054209 56 261 2.0 4.0 0.00 0.21 0.00 90 1005.6
20220524053304 55 286 2.0 4.0 0.00 0.21 0.00 90 1005.6
20220524052405 55 252 2.0 6.0 0.00 0.21 0.00 91 1005.6
20220524051508 54 251 1.0 3.0 0.00 0.21 0.00 91 1005.6
20220524050608 54 206 1.0 3.0 0.00 0.21 0.00 91 1005.6
20220524045704 54 295 1.0 4.0 0.00 0.21 0.00 91 1004.6
20220524044808 53 293 2.0 6.0 0.00 0.21 0.00 91 1004.6
20220524043906 53 305 1.0 5.0 0.00 0.21 0.00 91 1004.6
20220524043003 53 304 2.0 3.0 0.00 0.21 0.00 91 1003.6
20220524042108 53 319 2.0 5.0 0.00 0.21 0.00 91 1003.6
20220524041209 53 321 1.0 4.0 0.00 0.21 0.00 91 1005.6
20220524035911 53 228 2.0 6.0 0.00 0.21 0.00 91 1004.6
20220524035007 54 233 2.0 3.0 0.00 0.21 0.00 91 1004.6
20220524034106 54 290 1.0 3.0 0.00 0.21 0.00 91 1004.6
20220524033206 54 278 1.0 3.0 0.00 0.21 0.00 91 1004.6
20220524032306 54 282 2.0 3.0 0.00 0.21 0.00 91 1004.6
20220524031406 54 285 1.0 3.0 0.00 0.21 0.00 91 1004.6
20220524030506 55 286 1.0 3.0 0.00 0.21 0.00 91 1004.6
20220524025606 55 290 2.0 4.0 0.00 0.21 0.00 91 1003.6
20220524024706 55 0 0.0 3.0 0.00 0.21 0.00 91 1003.6
20220524023806 55 247 2.0 3.0 0.00 0.21 0.00 91 1003.6
20220524022907 55 275 2.0 6.0 0.00 0.21 0.00 92 1003.6
20220524022006 55 286 1.0 4.0 0.00 0.21 0.00 91 1003.6
20220524021106 55 0 0.0 4.0 0.00 0.21 0.00 91 1002.6
20220524015947 56 255 1.0 4.0 0.00 0.21 0.00 92 1003.6
20220524015052 56 255 1.0 4.0 0.00 0.21 0.00 92 1003.6
20220524014152 56 255 1.0 4.0 0.00 0.21 0.00 92 1003.6
20220524013247 56 255 1.0 4.0 0.00 0.21 0.00 92 1003.6
20220524012347 56 255 1.0 4.0 0.00 0.21 0.00 92 1003.6
20220524011448 56 255 1.0 4.0 0.00 0.21 0.00 92 1003.6
20220524010547 56 255 1.0 4.0 0.00 0.21 0.00 92 1003.6
20220524005647 56 255 1.0 4.0 0.00 0.21 0.00 92 1003.6
20220524004747 56 255 1.0 4.0 0.00 0.21 0.00 92 1003.6
20220524003847 56 255 1.0 4.0 0.00 0.21 0.00 92 1003.6
20220524002947 56 0 0.0 4.0 0.00 0.21 0.00 92 1002.6
20220524002047 57 268 2.0 3.0 0.00 0.21 0.00 92 1002.6
20220524001147 57 340 2.0 3.0 0.00 0.21 0.00 92 1002.6
20220523235105 57 302 1.0 3.0 0.00 0.21 0.00 93 1002.6
20220523234204 57 0 0.0 3.0 0.00 0.21 0.00 92 1002.6
20220523233304 57 61 1.0 3.0 0.00 0.21 0.00 93 1002.6
20220523232404 58 301 2.0 6.0 0.00 0.21 0.00 93 1002.6
20220523231504 58 301 1.0 3.0 0.00 0.21 0.00 94 1002.6
20220523230604 58 278 2.0 3.0 0.00 0.21 0.00 94 1002.6
20220523225705 58 228 1.0 3.0 0.00 0.21 0.00 94 1002.6
20220523224805 58 0 0.0 3.0 0.00 0.21 0.00 93 1002.6
20220523223905 58 225 1.0 3.0 0.00 0.21 0.00 93 1002.6
20220523223004 58 0 0.0 2.0 0.00 0.21 0.00 94 1001.5
20220523222104 58 192 1.0 3.0 0.00 0.21 0.00 93 1001.5
20220523221204 58 170 1.0 3.0 0.00 0.21 0.00 93 1001.5
20220523220001 58 0 0.0 1.0 0.05 0.21 0.00 93 1002.6
20220523215101 58 0 0.0 2.0 0.05 0.21 0.21 93 1002.6
20220523214205 59 0 0.0 0.0 0.05 0.21 0.21 93 1001.5
20220523213301 59 0 0.0 0.0 0.05 0.21 0.21 93 1002.6
20220523212401 59 0 0.0 0.0 0.05 0.21 0.21 92 1002.6
20220523211505 59 0 0.0 1.0 0.05 0.21 0.21 92 1002.6
20220523210601 59 157 1.0 1.0 0.00 0.16 0.16 92 1002.6
20220523205705 59 0 0.0 0.0 0.00 0.16 0.16 92 1002.6
20220523204800 59 0 0.0 0.0 0.00 0.16 0.16 91 1002.6
20220523203905 59 0 0.0 0.0 0.00 0.16 0.16 91 1002.6
20220523203005 60 0 0.0 0.0 0.00 0.16 0.16 91 1002.6
20220523202106 60 0 0.0 1.0 0.00 0.16 0.16 90 1002.6
20220523201201 60 0 0.0 2.0 0.00 0.16 0.16 90 1002.6
20220523195959 60 0 0.0 2.0 0.00 0.16 0.16 90 1001.5
20220523195059 60 0 0.0 2.0 0.00 0.16 0.16 89 1001.5
20220523194159 60 0 0.0 3.0 0.00 0.16 0.16 89 1002.6
20220523193254 60 0 0.0 1.0 0.00 0.16 0.16 89 1002.6
20220523192355 60 0 0.0 0.0 0.00 0.16 0.16 89 1002.6
20220523191455 61 0 0.0 2.0 0.00 0.16 0.16 89 1002.6
20220523190554 61 241 1.0 2.0 0.00 0.16 0.16 89 1002.6
20220523185655 61 0 0.0 2.0 0.00 0.16 0.16 89 1002.6
20220523184753 61 0 0.0 4.0 0.00 0.16 0.16 89 1001.5
20220523183854 61 250 1.0 4.0 0.00 0.16 0.16 89 1001.5
20220523182958 61 200 1.0 4.0 0.00 0.16 0.16 89 1002.6
20220523182054 61 268 2.0 4.0 0.00 0.16 0.16 90 1002.6
20220523181154 61 278 2.0 5.0 0.00 0.16 0.16 90 1001.5
20220523175957 62 241 2.0 4.0 0.00 0.16 0.16 90 1001.5
20220523175058 62 239 1.0 4.0 0.00 0.16 0.16 90 1001.5
20220523174159 62 265 3.0 5.0 0.00 0.16 0.16 90 1001.5
20220523173301 62 274 2.0 4.0 0.00 0.16 0.16 91 1001.5
20220523172358 62 276 2.0 5.0 0.00 0.16 0.16 90 1001.5
20220523171458 62 0 0.0 7.0 0.00 0.16 0.16 90 1001.5
20220523170558 62 245 2.0 6.0 0.00 0.16 0.16 89 1001.5
20220523165658 62 298 2.0 6.0 0.00 0.16 0.16 88 1000.5
20220523164758 63 269 3.0 7.0 0.00 0.16 0.16 85 1000.5
20220523163858 63 279 1.0 4.0 0.00 0.16 0.16 85 1000.5
20220523163003 63 229 2.0 7.0 0.00 0.16 0.16 83 1000.5
20220523162058 64 0 0.0 7.0 0.00 0.16 0.16 83 1000.5
20220523161158 64 270 2.0 5.0 0.00 0.16 0.16 83 1000.5
20220523160001 65 251 2.0 4.0 0.00 0.16 0.16 83 999.5
20220523155106 65 271 1.0 3.0 0.00 0.16 0.16 83 999.5
20220523154202 65 275 2.0 4.0 0.00 0.16 0.16 83 1000.5
20220523153303 66 258 2.0 4.0 0.00 0.16 0.16 83 1000.5
20220523152401 66 278 1.0 8.0 0.00 0.16 0.16 82 1000.5
20220523151506 66 272 3.0 8.0 0.00 0.16 0.16 83 1000.5
20220523150602 66 278 3.0 7.0 0.00 0.16 0.16 83 1000.5
20220523145701 66 265 3.0 4.0 0.00 0.16 0.16 84 1000.5
20220523144802 66 278 2.0 6.0 0.00 0.16 0.16 85 999.5
20220523143901 66 306 3.0 4.0 0.00 0.16 0.16 85 999.5
20220523143001 66 290 1.0 6.0 0.00 0.16 0.16 87 999.5
20220523142101 65 314 2.0 6.0 0.00 0.16 0.16 88 999.5
20220523141201 65 253 1.0 4.0 0.00 0.16 0.16 91 998.5
20220523135945 63 8 2.0 4.0 0.00 0.16 0.16 92 998.5
20220523135045 63 34 2.0 4.0 0.00 0.16 0.16 92 998.5
20220523134144 63 73 1.0 3.0 0.00 0.16 0.16 91 998.5
20220523133249 63 2 2.0 5.0 0.00 0.16 0.16 91 997.5
20220523132344 64 331 3.0 4.0 0.00 0.16 0.16 93 997.5
20220523131444 63 272 2.0 5.0 0.04 0.16 0.16 92 998.5
20220523130549 63 280 2.0 8.0 0.08 0.16 0.16 92 998.5
20220523125649 63 17 3.0 6.0 0.12 0.16 0.16 91 998.5
20220523124745 64 37 3.0 5.0 0.16 0.16 0.16 91 998.5
20220523123849 64 340 2.0 4.0 0.16 0.16 0.16 92 998.5
20220523122944 64 20 1.0 4.0 0.16 0.16 0.16 93 998.5
20220523122049 64 285 1.0 3.0 0.12 0.12 0.12 90 998.5
20220523121144 64 255 1.0 4.0 0.12 0.12 0.12 88 998.5
20220523115956 65 298 2.0 4.0 0.08 0.08 0.08 84 999.5
20220523115056 67 273 2.0 4.0 0.00 0.00 0.00 79 999.5
20220523114200 68 275 2.0 4.0 0.00 0.00 0.00 75 998.5
20220523113255 69 277 2.0 4.0 0.00 0.00 0.00 75 998.5
20220523112356 69 302 2.0 4.0 0.00 0.00 0.00 74 998.5
20220523111501 70 248 2.0 4.0 0.00 0.00 0.00 74 998.5
20220523110559 70 217 2.0 4.0 0.00 0.00 0.00 74 998.5
20220523105656 71 277 2.0 4.0 0.00 0.00 0.00 77 998.5
20220523104757 71 285 2.0 6.0 0.00 0.00 0.00 78 998.5
20220523103856 71 262 3.0 6.0 0.00 0.00 0.00 82 998.5
20220523102956 69 234 1.0 4.0 0.00 0.00 0.00 83 998.5
20220523102056 68 268 1.0 4.0 0.00 0.00 0.00 85 998.5
20220523101200 67 279 2.0 4.0 0.00 0.00 0.00 85 998.5
20220523095949 67 264 2.0 6.0 0.00 0.00 0.00 87 998.5
20220523095046 67 234 3.0 4.0 0.00 0.00 0.00 87 998.5
20220523094151 67 220 2.0 6.0 0.00 0.00 0.00 88 998.5